Time;durP1;ratioP1;P1;durP2;ratioP2;P2;SDS_P1;SDS_P2;PMS_P1;PMS_P2;Temp;Humidity;BMP_temperature;BMP_pressure;BME280_temperature;BME280_humidity;BME280_pressure;Samples;Min_cycle;Max_cycle;Signal;HPM_P1;HPM_P2
2021/04/17 00:02:01;;;;;;;4.77;3.47;;;;;;;7.29;81.94;99300.63;117396;1209;23081;-63
2021/04/17 00:04:30;;;;;;;4.85;3.80;;;;;;;7.16;82.44;99304.45;117269;1208;23766;-62
2021/04/17 00:06:58;;;;;;;4.50;3.60;;;;;;;7.06;82.74;99306.97;117269;1209;22887;-64
2021/04/17 00:09:27;;;;;;;4.75;3.85;;;;;;;6.97;82.62;99305.69;117230;1209;24028;-63
2021/04/17 00:11:58;;;;;;;4.35;3.40;;;;;;;6.89;83.17;99308.78;117395;1209;22876;-63
2021/04/17 00:14:28;;;;;;;3.85;3.10;;;;;;;6.78;83.53;99315.05;117221;1209;22837;-63
2021/04/17 00:17:13;;;;;;;4.30;3.80;;;;;;;6.66;83.65;99315.04;117250;1209;22839;-63
2021/04/17 00:19:41;;;;;;;4.35;3.25;;;;;;;6.54;83.51;99312.36;117377;1209;22917;-63
2021/04/17 00:22:09;;;;;;;3.15;2.85;;;;;;;6.45;84.14;99311.08;117280;1209;23756;-63
2021/04/17 00:24:36;;;;;;;4.85;3.90;;;;;;;6.42;84.11;99305.31;117229;1209;22826;-63
2021/04/17 00:27:06;;;;;;;4.50;3.45;;;;;;;6.42;84.14;99308.84;117351;1212;22868;-63
2021/04/17 00:29:35;;;;;;;3.75;3.35;;;;;;;6.43;84.76;99315.08;117423;1209;22896;-63
2021/04/17 00:32:04;;;;;;;4.40;3.90;;;;;;;6.43;84.98;99312.38;117224;1209;22922;-63
2021/04/17 00:34:32;;;;;;;3.80;3.50;;;;;;;6.44;84.90;99312.14;117377;1209;23804;-63
2021/04/17 00:36:59;;;;;;;4.20;3.70;;;;;;;6.45;84.97;99313.78;117230;1208;23752;-63
2021/04/17 00:39:27;;;;;;;4.55;3.80;;;;;;;6.46;85.39;99315.44;117228;1209;23606;-63
2021/04/17 00:41:54;;;;;;;5.00;3.35;;;;;;;6.47;84.59;99319.79;117378;1209;22936;-64
2021/04/17 00:44:22;;;;;;;4.90;4.13;;;;;;;6.43;85.01;99318.61;117234;1209;22809;-63
2021/04/17 00:46:49;;;;;;;3.75;3.30;;;;;;;6.39;85.31;99320.95;117271;1209;24185;-63
2021/04/17 00:49:17;;;;;;;5.60;3.65;;;;;;;6.37;84.93;99322.24;117245;1208;22840;-63
2021/04/17 00:51:45;;;;;;;4.00;3.60;;;;;;;6.34;84.98;99322.73;117275;1209;22994;-63
2021/04/17 00:54:13;;;;;;;4.80;4.00;;;;;;;6.31;85.02;99325.91;117224;1209;22969;-63
2021/04/17 00:56:41;;;;;;;4.90;4.40;;;;;;;6.25;85.16;99319.54;117390;1209;23492;-65
2021/04/17 00:59:08;;;;;;;7.95;4.45;;;;;;;6.19;84.91;99325.91;117218;1209;23850;-66
2021/04/17 01:01:36;;;;;;;6.15;3.95;;;;;;;6.12;84.60;99337.88;117259;1208;22892;-65
2021/04/17 01:04:31;;;;;;;4.25;3.85;;;;;;;6.06;84.56;99330.72;117213;1209;22898;-65
2021/04/17 01:07:11;;;;;;;4.75;3.55;;;;;;;5.97;84.97;99333.75;117228;1212;23834;-65
2021/04/17 01:09:39;;;;;;;4.93;3.80;;;;;;;5.94;85.15;99339.61;117243;1208;22882;-65
2021/04/17 01:12:23;;;;;;;4.60;4.10;;;;;;;5.89;84.68;99333.27;117249;1208;22998;-65
2021/04/17 01:14:51;;;;;;;4.90;4.20;;;;;;;5.85;85.13;99343.69;117227;1208;22820;-65
2021/04/17 01:17:19;;;;;;;6.15;3.60;;;;;;;5.84;85.10;99336.63;117226;1208;22821;-66
2021/04/17 01:19:49;;;;;;;4.30;3.60;;;;;;;5.81;85.50;99331.68;117265;1208;23706;-65
2021/04/17 01:22:19;;;;;;;4.80;3.70;;;;;;;5.79;85.07;99336.48;117213;1209;22813;-65
2021/04/17 01:25:01;;;;;;;4.03;3.53;;;;;;;5.78;84.89;99337.55;117259;1208;22953;-65
2021/04/17 01:27:28;;;;;;;4.80;3.80;;;;;;;5.77;85.18;99337.80;117205;1212;22888;-62
2021/04/17 01:29:56;;;;;;;3.70;3.15;;;;;;;5.78;85.47;99342.13;117233;1208;24402;-62
2021/04/17 01:32:23;;;;;;;5.03;3.63;;;;;;;5.79;85.64;99344.60;117184;1209;22818;-64
2021/04/17 01:34:52;;;;;;;4.50;4.00;;;;;;;5.82;85.74;99349.55;117234;1209;22832;-64
2021/04/17 01:37:19;;;;;;;4.70;4.03;;;;;;;5.85;85.50;99349.09;117413;1208;22931;-64
2021/04/17 01:39:47;;;;;;;4.35;3.35;;;;;;;5.87;85.81;99343.46;117267;1209;22814;-64
2021/04/17 01:42:15;;;;;;;5.10;4.05;;;;;;;5.89;85.77;99349.50;117257;1209;22909;-64
2021/04/17 01:44:45;;;;;;;4.87;3.53;;;;;;;5.90;85.16;99346.56;117257;1209;22869;-64
2021/04/17 01:47:14;;;;;;;3.70;3.30;;;;;;;5.90;85.01;99346.56;117193;1209;22854;-64
2021/04/17 01:49:47;;;;;;;3.70;3.10;;;;;;;5.93;85.75;99348.78;117256;1208;22937;-64
2021/04/17 01:52:18;;;;;;;3.95;3.45;;;;;;;5.95;85.19;99348.55;117212;1209;22797;-64
2021/04/17 01:54:47;;;;;;;3.75;3.40;;;;;;;5.95;85.32;99352.08;117245;1208;22826;-64
2021/04/17 01:57:17;;;;;;;4.15;3.60;;;;;;;5.97;85.11;99344.56;117236;1208;22854;-64
2021/04/17 01:59:47;;;;;;;4.10;3.30;;;;;;;5.98;85.68;99346.21;117219;1208;23704;-64
2021/04/17 02:02:16;;;;;;;4.10;3.50;;;;;;;6.00;85.54;99351.39;117194;1209;22858;-64
2021/04/17 02:04:44;;;;;;;4.15;3.40;;;;;;;6.00;84.95;99352.22;117361;1209;22863;-64
2021/04/17 02:07:11;;;;;;;4.25;3.25;;;;;;;6.01;85.31;99353.87;117408;1209;22940;-64
2021/04/17 02:09:40;;;;;;;3.50;2.90;;;;;;;6.03;84.96;99350.94;117416;1209;22908;-64
2021/04/17 02:12:08;;;;;;;3.67;3.20;;;;;;;6.03;84.79;99362.58;117260;1209;22792;-64
2021/04/17 02:14:35;;;;;;;3.90;3.20;;;;;;;6.01;84.83;99358.45;117265;1209;22919;-64
2021/04/17 02:17:13;;;;;;;3.60;2.53;;;;;;;5.98;84.98;99357.03;117249;1208;22898;-64
2021/04/17 02:19:57;;;;;;;3.77;3.10;;;;;;;5.99;84.74;99361.38;117273;1208;22801;-62
2021/04/17 02:22:24;;;;;;;4.20;3.20;;;;;;;5.99;84.70;99364.09;117212;1209;22807;-62
2021/04/17 02:24:52;;;;;;;5.50;3.40;;;;;;;5.97;84.48;99371.60;117230;1209;23556;-62
2021/04/17 02:27:20;;;;;;;3.85;3.45;;;;;;;5.92;85.01;99366.05;117246;1209;22861;-63
2021/04/17 02:29:54;;;;;;;4.00;2.95;;;;;;;5.89;84.94;99374.66;117254;1209;22841;-62
2021/04/17 02:32:22;;;;;;;3.57;3.17;;;;;;;5.86;85.20;99374.25;117240;1208;23030;-62
2021/04/17 02:34:51;;;;;;;7.00;4.90;;;;;;;5.88;84.85;99377.55;117224;1208;22975;-62
2021/04/17 02:37:18;;;;;;;5.05;4.10;;;;;;;5.89;84.64;99376.53;117266;1209;22973;-63
2021/04/17 02:39:46;;;;;;;5.30;4.10;;;;;;;5.88;85.15;99380.26;117262;1208;22843;-62
2021/04/17 02:42:14;;;;;;;5.60;4.30;;;;;;;5.86;84.72;99379.66;117270;1209;22872;-63
2021/04/17 02:44:43;;;;;;;4.50;3.65;;;;;;;5.85;85.19;99380.72;117258;1209;23980;-62
2021/04/17 02:47:11;;;;;;;4.20;3.20;;;;;;;5.85;84.62;99386.13;117441;1209;23016;-63
2021/04/17 02:49:38;;;;;;;3.87;3.33;;;;;;;5.83;84.93;99380.94;117212;1209;22867;-63
2021/04/17 02:52:06;;;;;;;7.70;5.45;;;;;;;5.85;85.35;99386.95;117405;1208;22836;-62
2021/04/17 02:54:34;;;;;;;5.55;4.95;;;;;;;5.84;84.62;99392.58;117233;1209;22839;-63
2021/04/17 02:57:01;;;;;;;6.35;4.30;;;;;;;5.84;85.33;99389.88;117221;1209;22818;-64
2021/04/17 02:59:30;;;;;;;5.70;4.40;;;;;;;5.85;85.44;99392.36;117361;1208;23507;-65
2021/04/17 03:01:58;;;;;;;5.80;4.53;;;;;;;5.86;85.69;99396.70;117269;1208;22882;-64
2021/04/17 03:04:26;;;;;;;4.85;4.30;;;;;;;5.86;84.76;99401.29;117424;1209;22894;-64
2021/04/17 03:06:53;;;;;;;4.40;4.00;;;;;;;5.85;85.12;99399.64;114494;1209;26264;-64
2021/04/17 03:09:21;;;;;;;4.60;4.10;;;;;;;5.85;85.15;99402.34;117101;1209;22959;-65
2021/04/17 03:11:49;;;;;;;6.50;3.20;;;;;;;5.86;85.57;99403.99;117367;1208;22958;-66
2021/04/17 03:14:17;;;;;;;4.03;3.63;;;;;;;5.86;85.23;99403.99;117222;1209;24070;-65
2021/04/17 03:16:45;;;;;;;5.95;4.10;;;;;;;5.89;85.51;99409.80;117374;1209;22832;-65
2021/04/17 03:19:12;;;;;;;3.65;3.20;;;;;;;5.92;84.92;99417.43;117446;1208;22827;-65
2021/04/17 03:21:40;;;;;;;4.15;3.55;;;;;;;5.93;85.60;99420.96;117233;1209;22862;-65
2021/04/17 03:24:08;;;;;;;4.80;4.25;;;;;;;5.96;85.80;99417.80;117410;1209;22960;-65
2021/04/17 03:26:36;;;;;;;7.00;4.10;;;;;;;6.01;85.74;99415.24;117382;1208;23718;-66
2021/04/17 03:29:03;;;;;;;4.10;3.63;;;;;;;6.05;85.04;99423.73;117408;1209;22886;-65
2021/04/17 03:31:32;;;;;;;7.90;6.10;;;;;;;6.07;84.99;99422.41;117262;1209;22829;-66
2021/04/17 03:34:00;;;;;;;7.40;5.95;;;;;;;6.08;85.07;99429.47;117393;1209;22989;-66
2021/04/17 03:36:28;;;;;;;6.50;5.20;;;;;;;6.09;85.90;99425.72;117241;1209;22882;-66
2021/04/17 03:38:55;;;;;;;7.80;4.90;;;;;;;6.12;85.41;99433.38;117404;1209;23878;-66
2021/04/17 03:41:22;;;;;;;5.40;4.63;;;;;;;6.14;85.33;99435.85;117230;1209;22955;-66
2021/04/17 03:43:50;;;;;;;6.25;4.90;;;;;;;6.15;85.31;99445.62;117315;1209;22894;-66
2021/04/17 03:46:18;;;;;;;5.93;3.70;;;;;;;6.15;84.77;99437.50;117238;1209;22869;-66
2021/04/17 03:48:46;;;;;;;4.75;3.75;;;;;;;6.14;85.23;99444.80;117345;1208;23600;-65
2021/04/17 03:51:14;;;;;;;4.50;3.67;;;;;;;6.16;85.25;99455.38;117250;1208;22892;-66
2021/04/17 03:53:42;;;;;;;4.75;4.20;;;;;;;6.16;85.13;99449.97;117420;1209;22824;-65
2021/04/17 03:56:10;;;;;;;4.50;3.35;;;;;;;6.18;84.95;99453.28;117412;1209;22923;-66
2021/04/17 03:58:40;;;;;;;3.45;2.60;;;;;;;6.15;84.73;99456.44;117252;1209;22858;-66
2021/04/17 04:01:08;;;;;;;5.50;3.60;;;;;;;6.14;84.87;99460.20;117409;1209;22840;-66
2021/04/17 04:03:35;;;;;;;3.70;2.95;;;;;;;6.14;84.96;99466.43;117245;1208;22946;-65
2021/04/17 04:06:03;;;;;;;6.05;3.65;;;;;;;6.15;84.83;99464.55;115761;1209;23131;-62
2021/04/17 04:08:33;;;;;;;6.60;4.20;;;;;;;6.13;84.93;99463.95;117150;1212;22916;-63
2021/04/17 04:11:01;;;;;;;4.77;3.83;;;;;;;6.09;84.96;99460.05;117429;1208;22822;-63
2021/04/17 04:13:28;;;;;;;6.00;4.00;;;;;;;6.03;84.55;99472.63;117308;1208;22854;-63
2021/04/17 04:15:56;;;;;;;6.45;4.85;;;;;;;5.98;84.24;99475.19;117421;1209;22926;-63
2021/04/17 04:18:24;;;;;;;5.97;4.67;;;;;;;5.98;84.89;99477.89;117266;1209;22920;-63
2021/04/17 04:20:52;;;;;;;5.45;4.10;;;;;;;5.98;84.50;99476.02;117200;1209;22823;-63
2021/04/17 04:23:20;;;;;;;7.30;4.70;;;;;;;5.98;84.81;99480.59;117294;1209;23424;-63
2021/04/17 04:25:47;;;;;;;6.20;4.60;;;;;;;6.01;85.00;99489.09;117412;1209;22817;-63
2021/04/17 04:28:15;;;;;;;6.55;5.05;;;;;;;6.03;84.62;99492.39;117363;1212;22857;-63
2021/04/17 04:30:43;;;;;;;9.40;6.50;;;;;;;6.07;84.89;99489.20;117231;1209;22802;-63
2021/04/17 04:33:11;;;;;;;8.00;6.15;;;;;;;6.09;84.51;99484.39;117237;1208;22864;-63
2021/04/17 04:35:38;;;;;;;10.03;7.87;;;;;;;6.14;85.16;99500.77;117428;1209;22946;-63
2021/04/17 04:38:06;;;;;;;10.35;7.40;;;;;;;6.16;84.49;99502.20;117379;1208;23526;-63
2021/04/17 04:40:33;;;;;;;7.00;5.10;;;;;;;6.17;85.08;99493.03;114889;1212;23119;-62
2021/04/17 04:43:01;;;;;;;5.95;4.80;;;;;;;6.18;84.49;99500.09;117081;1208;23027;-63
2021/04/17 04:45:28;;;;;;;8.15;5.75;;;;;;;6.20;84.16;99497.16;117391;1209;23540;-63
2021/04/17 04:47:55;;;;;;;8.05;6.00;;;;;;;6.22;84.96;99500.44;117397;1207;22838;-63
2021/04/17 04:50:23;;;;;;;12.90;8.20;;;;;;;6.24;84.12;99503.73;117390;1209;23663;-63
2021/04/17 04:52:51;;;;;;;15.20;8.15;;;;;;;6.21;84.38;99499.61;117398;1209;23718;-63
2021/04/17 04:55:18;;;;;;;9.20;7.40;;;;;;;6.23;84.55;99508.32;117380;1209;22841;-63
2021/04/17 04:57:46;;;;;;;9.27;7.10;;;;;;;6.26;84.43;99507.87;117268;1209;23065;-63
2021/04/17 05:00:13;;;;;;;7.80;7.00;;;;;;;6.30;84.12;99508.24;117254;1209;22858;-63
2021/04/17 05:02:41;;;;;;;8.67;6.97;;;;;;;6.35;84.76;99511.06;117251;1208;24672;-63
2021/04/17 05:05:09;;;;;;;8.35;6.65;;;;;;;6.41;84.59;99515.56;117267;1209;22831;-63
2021/04/17 05:07:37;;;;;;;14.80;9.95;;;;;;;6.44;84.24;99509.69;117435;1208;22846;-63
2021/04/17 05:10:05;;;;;;;14.67;9.80;;;;;;;6.50;84.52;99516.05;117325;1208;23089;-63
2021/04/17 05:12:32;;;;;;;7.93;6.57;;;;;;;6.53;83.89;99521.00;117403;1209;22881;-63
2021/04/17 05:15:00;;;;;;;9.47;6.93;;;;;;;6.58;84.67;99515.72;117442;1209;22844;-63
2021/04/17 05:17:27;;;;;;;8.55;6.20;;;;;;;6.63;84.64;99522.11;113441;1212;25951;-62
2021/04/17 05:19:55;;;;;;;7.35;6.45;;;;;;;6.66;84.25;99527.03;113303;1212;23343;-62
2021/04/17 05:22:23;;;;;;;7.00;6.00;;;;;;;6.69;84.29;99526.58;113246;1212;23124;-61
2021/04/17 05:24:51;;;;;;;7.63;6.17;;;;;;;6.73;83.72;99524.23;113263;1209;23107;-61
2021/04/17 05:27:20;;;;;;;9.10;6.45;;;;;;;6.74;84.01;99534.01;113218;1209;23224;-61
2021/04/17 05:29:48;;;;;;;7.50;6.70;;;;;;;6.74;83.63;99532.13;113234;1212;23212;-62
2021/04/17 05:32:15;;;;;;;6.15;5.55;;;;;;;6.77;83.60;99543.55;117090;1209;23089;-63
2021/04/17 05:34:43;;;;;;;9.25;6.35;;;;;;;6.78;82.87;99535.17;117456;1209;22805;-63
2021/04/17 05:37:11;;;;;;;6.35;5.50;;;;;;;6.80;83.46;99537.65;117222;1209;22865;-62
2021/04/17 05:39:39;;;;;;;6.60;5.60;;;;;;;6.81;83.18;99542.00;117376;1208;22939;-63
2021/04/17 05:42:07;;;;;;;7.40;5.35;;;;;;;6.79;83.05;99547.66;117372;1209;22791;-63
2021/04/17 05:44:35;;;;;;;6.00;5.40;;;;;;;6.81;82.14;99542.83;117363;1209;23053;-63
2021/04/17 05:47:03;;;;;;;6.40;5.20;;;;;;;6.83;82.56;99548.02;114172;1212;23170;-62
2021/04/17 05:49:31;;;;;;;6.40;5.65;;;;;;;6.85;82.54;99551.33;113187;1209;23134;-63
2021/04/17 05:51:58;;;;;;;9.90;7.80;;;;;;;6.85;82.62;99554.03;113302;1212;23249;-63
2021/04/17 05:54:26;;;;;;;9.90;6.60;;;;;;;6.86;82.02;99561.09;113223;1212;23142;-63
2021/04/17 05:56:53;;;;;;;8.70;6.45;;;;;;;6.87;82.53;99557.34;117374;1209;22941;-63
2021/04/17 05:59:21;;;;;;;9.70;6.30;;;;;;;6.88;82.48;99561.70;117374;1208;22897;-63
2021/04/17 06:01:50;;;;;;;9.73;6.17;;;;;;;6.90;81.83;99567.71;117268;1209;22892;-64
2021/04/17 06:04:17;;;;;;;8.20;5.70;;;;;;;6.91;82.02;99567.48;117332;1208;22972;-63
2021/04/17 06:06:45;;;;;;;13.15;7.20;;;;;;;6.93;82.38;99573.47;117423;1209;22899;-63
2021/04/17 06:09:13;;;;;;;11.00;6.60;;;;;;;6.96;82.08;99578.42;117237;1209;23674;-61
2021/04/17 06:11:40;;;;;;;7.90;6.30;;;;;;;6.99;81.71;99574.42;117231;1209;23679;-64
2021/04/17 06:14:08;;;;;;;7.43;6.00;;;;;;;7.00;82.06;99576.91;117226;1209;22951;-64
2021/04/17 06:16:36;;;;;;;5.35;4.85;;;;;;;7.03;81.47;99581.86;117398;1209;22858;-64
2021/04/17 06:19:06;;;;;;;7.70;5.80;;;;;;;7.07;81.66;99582.20;117187;1209;24002;-63
2021/04/17 06:21:34;;;;;;;5.63;5.03;;;;;;;7.08;81.44;99578.43;117229;1209;23019;-63
2021/04/17 06:24:03;;;;;;;6.00;4.65;;;;;;;7.08;82.01;99586.56;117273;1209;22840;-63
2021/04/17 06:26:30;;;;;;;6.10;4.60;;;;;;;7.06;81.87;99584.11;117233;1209;23971;-63
2021/04/17 06:28:58;;;;;;;5.90;4.95;;;;;;;7.09;81.41;99583.63;117226;1212;22964;-62
2021/04/17 06:31:26;;;;;;;5.37;4.87;;;;;;;7.08;81.28;99583.84;117203;1208;22785;-63
2021/04/17 06:33:54;;;;;;;7.20;5.30;;;;;;;7.10;82.26;99584.45;117367;1208;22878;-62
2021/04/17 06:36:21;;;;;;;7.25;4.95;;;;;;;7.10;82.00;99584.45;117228;1209;22845;-62
2021/04/17 06:38:49;;;;;;;7.75;5.40;;;;;;;7.12;81.69;99587.75;117271;1209;23021;-63
2021/04/17 06:41:18;;;;;;;5.45;4.50;;;;;;;7.12;81.43;99592.34;117339;1209;22820;-62
2021/04/17 06:43:46;;;;;;;16.75;10.90;;;;;;;7.12;81.16;99587.75;117268;1209;22896;-62
2021/04/17 06:46:13;;;;;;;11.75;7.55;;;;;;;7.10;81.45;99590.69;117209;1209;22826;-63
2021/04/17 06:48:41;;;;;;;9.00;5.20;;;;;;;7.09;81.08;99590.92;117321;1212;22810;-63
2021/04/17 06:51:14;;;;;;;10.60;4.85;;;;;;;7.08;81.24;99581.97;117219;1208;23329;-62
2021/04/17 06:53:42;;;;;;;8.73;6.53;;;;;;;7.12;81.63;99592.34;117376;1208;24084;-62
2021/04/17 06:56:10;;;;;;;8.20;5.80;;;;;;;7.16;80.78;99598.95;117185;1208;22935;-62
2021/04/17 06:58:42;;;;;;;5.50;4.35;;;;;;;7.20;80.73;99602.86;117206;1208;22856;-62
2021/04/17 07:01:09;;;;;;;8.13;5.13;;;;;;;7.22;80.31;99604.25;117219;1209;22994;-62
2021/04/17 07:03:37;;;;;;;9.25;5.40;;;;;;;7.26;80.47;99602.73;117334;1209;22811;-62
2021/04/17 07:06:05;;;;;;;7.00;5.30;;;;;;;7.29;80.87;99604.98;117218;1209;23140;-62
2021/04/17 07:08:33;;;;;;;6.05;5.05;;;;;;;7.34;81.29;99599.69;117336;1208;22778;-61
2021/04/17 07:11:01;;;;;;;6.95;3.50;;;;;;;7.39;81.25;99605.20;117218;1208;22834;-62
2021/04/17 07:13:28;;;;;;;5.80;3.75;;;;;;;7.48;81.05;99610.30;117243;1209;22812;-62
2021/04/17 07:16:08;;;;;;;5.50;4.20;;;;;;;7.52;80.78;99609.56;117225;1209;23506;-62
2021/04/17 07:18:37;;;;;;;6.75;4.55;;;;;;;7.56;79.84;99609.92;117365;1209;23328;-62
2021/04/17 07:21:15;;;;;;;6.40;4.15;;;;;;;7.49;79.73;99614.66;117340;1209;22891;-62
2021/04/17 07:23:45;;;;;;;8.65;5.40;;;;;;;7.39;79.28;99624.18;117236;1209;23712;-62
2021/04/17 07:26:13;;;;;;;6.85;4.70;;;;;;;7.28;79.00;99619.58;117352;1209;22938;-63
2021/04/17 07:28:56;;;;;;;9.50;5.55;;;;;;;7.25;78.69;99619.22;117381;1209;22890;-61
2021/04/17 07:31:24;;;;;;;5.95;4.55;;;;;;;7.25;78.71;99628.17;117311;1209;24683;-62
2021/04/17 07:33:53;;;;;;;8.00;4.80;;;;;;;7.29;79.67;99629.37;117248;1209;22850;-62
2021/04/17 07:36:22;;;;;;;5.30;4.70;;;;;;;7.32;79.05;99633.50;117360;1208;22804;-62
2021/04/17 07:38:52;;;;;;;6.30;4.90;;;;;;;7.34;78.77;99628.67;117342;1208;22830;-62
2021/04/17 07:41:20;;;;;;;7.30;4.60;;;;;;;7.32;78.64;99636.20;117237;1209;22923;-62
2021/04/17 07:43:59;;;;;;;6.30;4.70;;;;;;;7.26;78.30;99631.70;117218;1209;22933;-61
2021/04/17 07:46:40;;;;;;;5.57;4.77;;;;;;;7.19;79.18;99629.13;117377;1209;22819;-61
2021/04/17 07:49:24;;;;;;;6.23;4.57;;;;;;;7.18;78.88;99637.48;117172;1210;22838;-62
2021/04/17 07:52:12;;;;;;;4.05;3.60;;;;;;;7.22;79.42;99636.77;117252;1209;22972;-61
2021/04/17 07:54:52;;;;;;;9.30;5.90;;;;;;;7.29;79.69;99628.54;117329;1208;22791;-62
2021/04/17 07:57:20;;;;;;;7.40;5.75;;;;;;;7.33;78.87;99629.73;117340;1209;22871;-62
2021/04/17 07:59:47;;;;;;;58.40;31.70;;;;;;;7.38;78.99;99635.25;117245;1209;22808;-61
2021/04/17 08:02:14;;;;;;;13.07;8.57;;;;;;;7.40;78.95;99633.14;117255;1208;22958;-61
2021/04/17 08:04:42;;;;;;;8.60;6.70;;;;;;;7.40;78.89;99635.84;117200;1208;24094;-62
2021/04/17 08:07:10;;;;;;;6.75;5.45;;;;;;;7.43;78.66;99648.94;117264;1209;22811;-62
2021/04/17 08:09:38;;;;;;;6.60;5.47;;;;;;;7.36;78.85;99634.66;117245;1209;23569;-61
2021/04/17 08:12:06;;;;;;;7.55;5.75;;;;;;;7.40;78.71;99647.52;117194;1209;23960;-62
2021/04/17 08:14:34;;;;;;;6.60;5.20;;;;;;;7.37;79.42;99645.27;117194;1209;22836;-62
2021/04/17 08:17:01;;;;;;;9.60;7.00;;;;;;;7.38;78.82;99648.80;117261;1208;23075;-62
2021/04/17 08:19:33;;;;;;;10.55;7.55;;;;;;;7.37;79.13;99647.16;117210;1209;23277;-62
2021/04/17 08:22:01;;;;;;;7.80;6.25;;;;;;;7.32;78.57;99647.88;117266;1208;24168;-62
2021/04/17 08:24:30;;;;;;;9.43;6.53;;;;;;;7.29;78.35;99648.34;117405;1209;22864;-62
2021/04/17 08:26:58;;;;;;;7.35;5.70;;;;;;;7.25;78.55;99641.72;117272;1208;22797;-62
2021/04/17 08:29:54;;;;;;;6.00;4.90;;;;;;;7.22;79.15;99647.60;117208;1212;22875;-62
2021/04/17 08:32:24;;;;;;;9.50;5.30;;;;;;;7.20;78.79;99646.21;117298;1208;22803;-62
2021/04/17 08:35:18;;;;;;;6.93;4.90;;;;;;;7.16;79.52;99651.27;117203;1209;23877;-62
2021/04/17 08:37:57;;;;;;;7.85;5.80;;;;;;;7.15;79.19;99651.49;117248;1209;23540;-62
2021/04/17 08:40:40;;;;;;;5.70;4.70;;;;;;;7.16;79.27;99653.14;117239;1209;23006;-62
2021/04/17 08:43:08;;;;;;;5.25;4.45;;;;;;;7.16;79.75;99648.55;117252;1209;22834;-62
2021/04/17 08:45:36;;;;;;;7.47;4.77;;;;;;;7.17;80.10;99655.63;117191;1208;22917;-62
2021/04/17 08:48:04;;;;;;;7.70;5.80;;;;;;;7.18;79.89;99649.15;117232;1208;22964;-62
2021/04/17 08:50:32;;;;;;;6.27;5.33;;;;;;;7.17;80.09;99650.20;117197;1209;22983;-62
2021/04/17 08:53:17;;;;;;;8.30;4.95;;;;;;;7.16;79.51;99653.97;117405;1208;23951;-62
2021/04/17 08:55:49;;;;;;;6.80;5.20;;;;;;;7.12;79.84;99651.95;116393;1212;23124;-61
2021/04/17 08:58:21;;;;;;;5.90;4.85;;;;;;;7.12;79.65;99649.23;117271;1209;22838;-62
2021/04/17 09:00:52;;;;;;;7.40;5.00;;;;;;;7.12;80.08;99652.78;117249;1209;23658;-62
2021/04/17 09:03:37;;;;;;;7.67;5.63;;;;;;;7.11;79.82;99653.83;117416;1209;22849;-62
2021/04/17 09:06:07;;;;;;;7.55;6.20;;;;;;;7.09;79.48;99655.94;117378;1209;22897;-62
2021/04/17 09:08:38;;;;;;;9.07;6.27;;;;;;;7.08;80.11;99657.83;117418;1209;22839;-62
2021/04/17 09:11:32;;;;;;;7.85;5.70;;;;;;;7.06;80.09;99651.84;117292;1208;22937;-62
2021/04/17 09:14:00;;;;;;;8.33;5.93;;;;;;;7.04;79.77;99656.66;117384;1208;22891;-62
2021/04/17 09:16:38;;;;;;;8.30;5.90;;;;;;;7.02;80.24;99657.94;117372;1209;22843;-62
2021/04/17 09:19:06;;;;;;;7.55;5.80;;;;;;;7.00;79.77;99657.34;117416;1209;22872;-62
2021/04/17 09:21:33;;;;;;;7.87;6.70;;;;;;;6.98;80.35;99660.28;117340;1209;23407;-62
2021/04/17 09:24:02;;;;;;;7.85;6.75;;;;;;;6.97;79.94;99660.51;117398;1208;23831;-62
2021/04/17 09:26:34;;;;;;;9.23;7.30;;;;;;;6.95;79.79;99657.20;117229;1208;23954;-62
2021/04/17 09:29:21;;;;;;;12.55;8.25;;;;;;;6.94;80.40;99659.08;117441;1209;23386;-62
2021/04/17 09:31:51;;;;;;;11.20;8.80;;;;;;;6.91;81.18;99659.56;117385;1209;23004;-62
2021/04/17 09:34:19;;;;;;;15.70;11.35;;;;;;;6.89;80.96;99663.56;117256;1209;22821;-62
2021/04/17 09:36:50;;;;;;;11.15;8.55;;;;;;;6.88;81.42;99664.61;114458;1209;23166;-61
2021/04/17 09:39:31;;;;;;;16.40;8.60;;;;;;;6.87;81.28;99665.67;117262;1209;24024;-62
2021/04/17 09:42:03;;;;;;;12.70;8.95;;;;;;;6.84;81.88;99666.95;117222;1209;22853;-62
2021/04/17 09:44:45;;;;;;;13.65;7.40;;;;;;;6.83;81.28;99664.47;117391;1208;23604;-62
2021/04/17 09:47:14;;;;;;;13.75;8.15;;;;;;;6.83;81.56;99664.47;117370;1208;22827;-62
2021/04/17 09:49:45;;;;;;;12.47;7.80;;;;;;;6.85;82.07;99670.48;117238;1212;22941;-62
2021/04/17 09:52:20;;;;;;;14.70;7.85;;;;;;;6.88;81.94;99670.86;117414;1208;22799;-62
2021/04/17 09:54:59;;;;;;;11.40;8.45;;;;;;;6.91;81.84;99674.99;117263;1208;22837;-62
2021/04/17 09:57:27;;;;;;;11.65;8.60;;;;;;;6.92;81.44;99682.06;117223;1209;23563;-62
2021/04/17 09:59:55;;;;;;;10.90;8.73;;;;;;;6.92;81.77;99671.23;117214;1209;23051;-62
2021/04/17 10:02:24;;;;;;;10.05;7.80;;;;;;;6.90;81.19;99678.75;117250;1209;22941;-62
2021/04/17 10:04:58;;;;;;;13.70;8.40;;;;;;;6.87;81.33;99680.03;117369;1209;24190;-62
2021/04/17 10:07:25;;;;;;;11.93;8.80;;;;;;;6.85;81.37;99684.85;117422;1209;22783;-62
2021/04/17 10:10:06;;;;;;;10.15;8.25;;;;;;;6.84;81.49;99688.61;117368;1212;22913;-62
2021/04/17 10:12:51;;;;;;;13.20;8.20;;;;;;;6.87;81.62;99687.33;117350;1209;23243;-62
2021/04/17 10:15:35;;;;;;;11.10;7.70;;;;;;;6.89;81.12;99693.35;117170;1208;22887;-62
2021/04/17 10:18:06;;;;;;;10.70;8.30;;;;;;;6.91;81.50;99688.53;117258;1208;22909;-62
2021/04/17 10:20:36;;;;;;;10.00;8.15;;;;;;;6.93;81.43;99697.23;117228;1208;22967;-62
2021/04/17 10:23:04;;;;;;;12.90;8.40;;;;;;;6.93;81.21;99698.05;117291;1208;23476;-62
2021/04/17 10:25:52;;;;;;;13.20;8.90;;;;;;;6.95;81.84;99698.66;117228;1208;22870;-62
2021/04/17 10:28:22;;;;;;;14.87;10.53;;;;;;;6.96;81.66;99697.61;117238;1208;22910;-62
2021/04/17 10:30:57;;;;;;;22.85;11.60;;;;;;;6.95;81.07;99697.83;117235;1208;22898;-62
2021/04/17 10:33:26;;;;;;;13.30;10.50;;;;;;;6.94;81.73;99698.88;117228;1209;22841;-62
2021/04/17 10:35:56;;;;;;;16.25;11.45;;;;;;;6.93;81.78;99705.36;117365;1209;23001;-62
2021/04/17 10:38:26;;;;;;;21.05;12.30;;;;;;;6.94;81.70;99707.01;117250;1207;23728;-62
2021/04/17 10:40:54;;;;;;;20.50;12.70;;;;;;;6.94;82.20;99707.01;117367;1208;22858;-62
2021/04/17 10:43:22;;;;;;;21.90;14.85;;;;;;;6.95;82.48;99714.08;117394;1209;22869;-62
2021/04/17 10:45:55;;;;;;;23.53;14.60;;;;;;;6.95;82.46;99716.79;117380;1208;22852;-62
2021/04/17 10:48:24;;;;;;;23.20;16.40;;;;;;;6.95;82.42;99711.38;117271;1208;22890;-62
2021/04/17 10:51:01;;;;;;;30.25;17.20;;;;;;;6.94;82.33;99715.97;117292;1208;23302;-62
2021/04/17 10:53:33;;;;;;;25.78;16.88;;;;;;;6.97;82.79;99717.39;117397;1208;22870;-62
2021/04/17 10:56:08;;;;;;;23.95;15.65;;;;;;;6.98;82.88;99722.58;117402;1209;23735;-62
2021/04/17 10:58:36;;;;;;;21.63;15.63;;;;;;;7.00;81.87;99722.36;117262;1209;24223;-62
2021/04/17 11:01:13;;;;;;;24.45;16.55;;;;;;;7.00;82.50;99722.36;117237;1207;22829;-62
2021/04/17 11:03:48;;;;;;;27.68;18.10;;;;;;;7.02;82.88;99722.95;117264;1208;22888;-62
2021/04/17 11:06:16;;;;;;;26.70;17.50;;;;;;;7.06;82.04;99726.88;117361;1209;22836;-62
2021/04/17 11:08:44;;;;;;;27.35;17.25;;;;;;;7.11;82.23;99718.86;117367;1209;22803;-62
2021/04/17 11:11:14;;;;;;;26.00;16.10;;;;;;;7.16;82.43;99721.71;117236;1209;23801;-62
2021/04/17 11:13:42;;;;;;;20.85;14.75;;;;;;;7.23;82.31;99718.89;117410;1209;22823;-62
2021/04/17 11:16:13;;;;;;;11.50;8.90;;;;;;;7.28;82.95;99719.86;117356;1208;23655;-62
2021/04/17 11:18:44;;;;;;;11.75;7.40;;;;;;;7.33;82.61;99725.42;117363;1209;24059;-62
2021/04/17 11:21:11;;;;;;;10.15;8.20;;;;;;;7.39;82.05;99727.19;117244;1209;22788;-62
2021/04/17 11:23:49;;;;;;;11.33;7.53;;;;;;;7.45;82.42;99728.98;117267;1209;22853;-62
2021/04/17 11:26:21;;;;;;;9.25;7.20;;;;;;;7.50;82.75;99728.29;117345;1208;22834;-62
2021/04/17 11:28:51;;;;;;;7.90;6.80;;;;;;;7.55;82.71;99730.28;117353;1209;23004;-62
2021/04/17 11:31:33;;;;;;;9.30;6.15;;;;;;;7.58;82.56;99727.94;117379;1209;22935;-62
2021/04/17 11:34:02;;;;;;;9.05;6.45;;;;;;;7.64;82.56;99732.44;117271;1208;22781;-62
2021/04/17 11:36:32;;;;;;;8.40;6.70;;;;;;;7.61;81.72;99718.52;117270;1209;23617;-62
2021/04/17 11:39:00;;;;;;;10.30;7.55;;;;;;;7.71;81.63;99732.31;117347;1208;22830;-62
2021/04/17 11:41:28;;;;;;;9.70;7.00;;;;;;;7.73;81.82;99738.33;117445;1208;22817;-62
2021/04/17 11:46:15;;;;;;;10.45;9.05;;;;;;;7.79;81.95;99734.70;113295;1203;25476;-62
2021/04/17 11:48:49;;;;;;;11.93;8.95;;;;;;;7.82;81.89;99728.78;117429;1209;22853;-62